Time;durP1;ratioP1;P1;durP2;ratioP2;P2;SDS_P1;SDS_P2;PMS_P1;PMS_P2;Temp;Humidity;BMP_temperature;BMP_pressure;BME280_temperature;BME280_humidity;BME280_pressure;Samples;Min_cycle;Max_cycle;Signal;HPM_P1;HPM_P2
2023/03/24 00:00:17;;;;;;;;;;;;;;;;;;6186429;23;20348;-95
2023/03/24 00:02:45;;;;;;;;;;;;;;;;;;6182215;23;19927;-96
2023/03/24 00:05:12;;;;;;;;;;;;;;;;;;6187201;23;20386;-95
2023/03/24 00:07:37;;;;;;;;;;;;;;;;;;6213679;23;19955;-95
2023/03/24 00:10:04;;;;;;;;;;;;;;;;;;6183431;23;20240;-95
2023/03/24 00:12:30;;;;;;;;;;;;;;;;;;6183945;23;20244;-95
2023/03/24 00:14:56;;;;;;;;;;;;;;;;;;6181814;23;20320;-95
2023/03/24 00:17:24;;;;;;;;;;;;;;;;;;6183945;23;20042;-95
2023/03/24 00:19:50;;;;;;;;;;;;;;;;;;6182544;23;19919;-95
2023/03/24 00:22:16;;;;;;;;;;;;;;;;;;6182823;23;20001;-95
2023/03/24 00:24:45;;;;;;;;;;;;;;;;;;6182582;23;19926;-93
2023/03/24 00:27:12;;;;;;;;;;;;;;;;;;6184296;23;19916;-95
2023/03/24 00:29:39;;;;;;;;;;;;;;;;;;6209593;23;19941;-95
2023/03/24 00:32:05;;;;;;;;;;;;;;;;;;6184083;23;19924;-95
2023/03/24 00:34:33;;;;;;;;;;;;;;;;;;6184172;23;20341;-94
2023/03/24 00:36:59;;;;;;;;;;;;;;;;;;6181760;23;19915;-94
2023/03/24 00:39:25;;;;;;;;;;;;;;;;;;6182873;23;20005;-95
2023/03/24 00:41:51;;;;;;;;;;;;;;;;;;6180589;23;19927;-95
2023/03/24 00:44:17;;;;;;;;;;;;;;;;;;6209828;23;19916;-94
2023/03/24 00:46:44;;;;;;;;;;;;;;;;;;6206244;23;20259;-94
2023/03/24 00:49:11;;;;;;;;;;;;;;;;;;6185336;23;19915;-96
2023/03/24 00:51:37;;;;;;;;;;;;;;;;;;6184503;23;19919;-94
2023/03/24 00:54:03;;;;;;;;;;;;;;;;;;6232888;23;19923;-94
2023/03/24 00:56:30;;;;;;;;;;;;;;;;;;6211045;23;19946;-94
2023/03/24 00:58:56;;;;;;;;;;;;;;;;;;6205816;23;19938;-95
2023/03/24 01:01:22;;;;;;;;;;;;;;;;;;6235853;23;19923;-96
2023/03/24 01:03:49;;;;;;;;;;;;;;;;;;6184483;23;19920;-95
2023/03/24 01:06:15;;;;;;;;;;;;;;;;;;6210925;23;20343;-94
2023/03/24 01:08:42;;;;;;;;;;;;;;;;;;6207439;23;19947;-95
2023/03/24 01:11:09;;;;;;;;;;;;;;;;;;6186159;23;20423;-94
2023/03/24 01:13:35;;;;;;;;;;;;;;;;;;6210889;23;19927;-95
2023/03/24 01:16:02;;;;;;;;;;;;;;;;;;6182292;23;20394;-95
2023/03/24 01:18:28;;;;;;;;;;;;;;;;;;6185759;23;19950;-95
2023/03/24 01:20:54;;;;;;;;;;;;;;;;;;6183283;23;20234;-95
2023/03/24 01:23:20;;;;;;;;;;;;;;;;;;6185389;23;19989;-93
2023/03/24 01:25:47;;;;;;;;;;;;;;;;;;6208330;23;20392;-95
2023/03/24 01:28:13;;;;;;;;;;;;;;;;;;6209262;23;19926;-95
2023/03/24 01:30:39;;;;;;;;;;;;;;;;;;6209928;23;19920;-94
2023/03/24 01:33:05;;;;;;;;;;;;;;;;;;6185872;23;20382;-95
2023/03/24 01:35:31;;;;;;;;;;;;;;;;;;6186082;23;19950;-94
2023/03/24 01:37:57;;;;;;;;;;;;;;;;;;6183208;23;19920;-95
2023/03/24 01:40:23;;;;;;;;;;;;;;;;;;6185559;23;20229;-95
2023/03/24 01:42:50;;;;;;;;;;;;;;;;;;6180644;23;20348;-94
2023/03/24 01:45:16;;;;;;;;;;;;;;;;;;6185530;23;19982;-93
2023/03/24 01:47:42;;;;;;;;;;;;;;;;;;6181860;23;19915;-95
2023/03/24 01:50:08;;;;;;;;;;;;;;;;;;6187350;23;20244;-94
2023/03/24 01:52:34;;;;;;;;;;;;;;;;;;6183066;23;19922;-95
2023/03/24 01:55:00;;;;;;;;;;;;;;;;;;6206475;23;20756;-94
2023/03/24 01:57:26;;;;;;;;;;;;;;;;;;6183992;23;20237;-95
2023/03/24 01:59:52;;;;;;;;;;;;;;;;;;6185831;23;20006;-95
2023/03/24 02:02:20;;;;;;;;;;;;;;;;;;6183071;23;19973;-95
2023/03/24 02:04:52;;;;;;;;;;;;;;;;;;6183527;23;19921;-95
2023/03/24 02:07:18;;;;;;;;;;;;;;;;;;6185021;23;19916;-95
2023/03/24 02:09:44;;;;;;;;;;;;;;;;;;6183855;23;19919;-95
2023/03/24 02:12:10;;;;;;;;;;;;;;;;;;6183377;23;19981;-95
2023/03/24 02:14:36;;;;;;;;;;;;;;;;;;6187207;23;19919;-94
2023/03/24 02:17:02;;;;;;;;;;;;;;;;;;6184264;23;19920;-95
2023/03/24 02:19:36;;;;;;;;;;;;;;;;;;6187419;23;19919;-95
2023/03/24 02:22:02;;;;;;;;;;;;;;;;;;6183872;23;19950;-96
2023/03/24 02:24:28;;;;;;;;;;;;;;;;;;6186639;23;19926;-95
2023/03/24 02:26:54;;;;;;;;;;;;;;;;;;6182828;23;19916;-95
2023/03/24 02:29:20;;;;;;;;;;;;;;;;;;6186664;23;20329;-96
2023/03/24 02:31:46;;;;;;;;;;;;;;;;;;6182374;23;19920;-95
2023/03/24 02:34:12;;;;;;;;;;;;;;;;;;6186381;23;19920;-95
2023/03/24 02:36:41;;;;;;;;;;;;;;;;;;6184059;23;19919;-95
2023/03/24 02:39:08;;;;;;;;;;;;;;;;;;6185092;23;19920;-95
2023/03/24 02:41:34;;;;;;;;;;;;;;;;;;6184819;23;19920;-95
2023/03/24 02:44:00;;;;;;;;;;;;;;;;;;6207072;23;19919;-94
2023/03/24 02:46:26;;;;;;;;;;;;;;;;;;6186230;23;20300;-94
2023/03/24 02:48:52;;;;;;;;;;;;;;;;;;6185411;23;19916;-94
2023/03/24 02:51:18;;;;;;;;;;;;;;;;;;6185804;23;20086;-95
2023/03/24 02:53:44;;;;;;;;;;;;;;;;;;6182967;23;19919;-95
2023/03/24 02:56:10;;;;;;;;;;;;;;;;;;6182314;23;19924;-94
2023/03/24 02:58:36;;;;;;;;;;;;;;;;;;6184796;23;19998;-94
2023/03/24 03:01:03;;;;;;;;;;;;;;;;;;6192404;23;19939;-93
2023/03/24 03:03:29;;;;;;;;;;;;;;;;;;6181732;23;19987;-93
2023/03/24 03:05:57;;;;;;;;;;;;;;;;;;6175718;23;19927;-94
2023/03/24 03:08:23;;;;;;;;;;;;;;;;;;6179970;23;19973;-94
2023/03/24 03:10:49;;;;;;;;;;;;;;;;;;6153200;23;19995;-94
2023/03/24 03:13:15;;;;;;;;;;;;;;;;;;6153724;23;20017;-94
2023/03/24 03:15:41;;;;;;;;;;;;;;;;;;6152612;23;19963;-94
2023/03/24 03:18:07;;;;;;;;;;;;;;;;;;6154486;23;19920;-94
2023/03/24 03:20:33;;;;;;;;;;;;;;;;;;6154868;23;19923;-94
2023/03/24 03:22:59;;;;;;;;;;;;;;;;;;6175935;23;20446;-94
2023/03/24 03:25:25;;;;;;;;;;;;;;;;;;6154946;23;19959;-95
2023/03/24 03:27:51;;;;;;;;;;;;;;;;;;6151906;23;19920;-93
2023/03/24 03:30:17;;;;;;;;;;;;;;;;;;6154315;23;19919;-94
2023/03/24 03:32:43;;;;;;;;;;;;;;;;;;6153363;23;19920;-94
2023/03/24 03:35:10;;;;;;;;;;;;;;;;;;6155911;23;20321;-95
2023/03/24 03:37:35;;;;;;;;;;;;;;;;;;6155584;23;19920;-95
2023/03/24 03:40:03;;;;;;;;;;;;;;;;;;6152343;23;20222;-94
2023/03/24 03:42:29;;;;;;;;;;;;;;;;;;6153963;23;20257;-94
2023/03/24 03:44:55;;;;;;;;;;;;;;;;;;6152193;23;19924;-94
2023/03/24 03:47:21;;;;;;;;;;;;;;;;;;6154427;23;19922;-94
2023/03/24 03:49:47;;;;;;;;;;;;;;;;;;6152685;23;19920;-93
2023/03/24 03:52:14;;;;;;;;;;;;;;;;;;6152079;23;19920;-93
2023/03/24 03:54:40;;;;;;;;;;;;;;;;;;6151994;23;19926;-94
2023/03/24 03:57:06;;;;;;;;;;;;;;;;;;6152308;23;19920;-92
2023/03/24 03:59:35;;;;;;;;;;;;;;;;;;6179449;23;19999;-92
2023/03/24 04:02:01;;;;;;;;;;;;;;;;;;6151145;23;20042;-95
2023/03/24 04:04:27;;;;;;;;;;;;;;;;;;6153698;23;19959;-93
2023/03/24 04:06:53;;;;;;;;;;;;;;;;;;6152914;23;20394;-93
2023/03/24 04:09:19;;;;;;;;;;;;;;;;;;6205753;23;19951;-94
2023/03/24 04:11:45;;;;;;;;;;;;;;;;;;6152436;23;19959;-94
2023/03/24 04:14:11;;;;;;;;;;;;;;;;;;6155567;23;19916;-94
2023/03/24 04:16:38;;;;;;;;;;;;;;;;;;6179320;23;19919;-95
2023/03/24 04:19:05;;;;;;;;;;;;;;;;;;6157165;23;19920;-95
2023/03/24 04:21:32;;;;;;;;;;;;;;;;;;6156624;23;20237;-94
2023/03/24 04:23:58;;;;;;;;;;;;;;;;;;6179806;23;19991;-94
2023/03/24 04:26:25;;;;;;;;;;;;;;;;;;6156901;23;19993;-95
2023/03/24 04:28:51;;;;;;;;;;;;;;;;;;6155640;23;20325;-95
2023/03/24 04:31:22;;;;;;;;;;;;;;;;;;6156771;23;19916;-95
2023/03/24 04:33:49;;;;;;;;;;;;;;;;;;6157229;23;20337;-95
2023/03/24 04:36:15;;;;;;;;;;;;;;;;;;6160448;23;19924;-95
2023/03/24 04:38:41;;;;;;;;;;;;;;;;;;6179550;23;19916;-96
2023/03/24 04:41:08;;;;;;;;;;;;;;;;;;6181686;23;20287;-95
2023/03/24 04:43:37;;;;;;;;;;;;;;;;;;6182924;23;19926;-95
2023/03/24 04:46:03;;;;;;;;;;;;;;;;;;6161056;23;20002;-94
2023/03/24 04:48:29;;;;;;;;;;;;;;;;;;6185022;23;19920;-95
2023/03/24 04:50:55;;;;;;;;;;;;;;;;;;6158771;23;20361;-95
2023/03/24 04:53:21;;;;;;;;;;;;;;;;;;6183170;23;20375;-95
2023/03/24 04:55:47;;;;;;;;;;;;;;;;;;6156081;23;19923;-95
2023/03/24 04:58:14;;;;;;;;;;;;;;;;;;6158350;23;20635;-95
2023/03/24 05:00:40;;;;;;;;;;;;;;;;;;6156123;23;19931;-95
2023/03/24 05:03:07;;;;;;;;;;;;;;;;;;6158420;23;20038;-94
2023/03/24 05:05:33;;;;;;;;;;;;;;;;;;6186060;23;20240;-95
2023/03/24 05:07:59;;;;;;;;;;;;;;;;;;6165974;23;19995;-95
2023/03/24 05:10:25;;;;;;;;;;;;;;;;;;6173039;23;19974;-95
2023/03/24 05:12:51;;;;;;;;;;;;;;;;;;6166811;23;19916;-96
2023/03/24 05:15:17;;;;;;;;;;;;;;;;;;6162463;23;19994;-96
2023/03/24 05:17:43;;;;;;;;;;;;;;;;;;6156373;23;19920;-96
2023/03/24 05:20:09;;;;;;;;;;;;;;;;;;6156392;23;19924;-96
2023/03/24 05:22:35;;;;;;;;;;;;;;;;;;6156498;23;19991;-96
2023/03/24 05:25:01;;;;;;;;;;;;;;;;;;6154234;23;19962;-95
2023/03/24 05:27:27;;;;;;;;;;;;;;;;;;6154176;23;20328;-95
2023/03/24 05:29:53;;;;;;;;;;;;;;;;;;6163833;23;20359;-95
2023/03/24 05:32:19;;;;;;;;;;;;;;;;;;6163142;23;19920;-95
2023/03/24 05:34:46;;;;;;;;;;;;;;;;;;6163834;23;19929;-95
2023/03/24 05:37:14;;;;;;;;;;;;;;;;;;6164931;23;19999;-95
2023/03/24 05:39:44;;;;;;;;;;;;;;;;;;6183352;23;19967;-96
2023/03/24 05:42:10;;;;;;;;;;;;;;;;;;6190741;23;19955;-95
2023/03/24 05:44:36;;;;;;;;;;;;;;;;;;6161775;23;20319;-96
2023/03/24 05:47:02;;;;;;;;;;;;;;;;;;6155061;23;19920;-96
2023/03/24 05:49:31;;;;;;;;;;;;;;;;;;6164124;23;19923;-96
2023/03/24 05:51:57;;;;;;;;;;;;;;;;;;6185196;23;19943;-95
2023/03/24 05:54:23;;;;;;;;;;;;;;;;;;6156750;23;20330;-96
2023/03/24 05:56:50;;;;;;;;;;;;;;;;;;6156756;23;19916;-95
2023/03/24 05:59:16;;;;;;;;;;;;;;;;;;6184050;23;19922;-95
2023/03/24 06:01:42;;;;;;;;;;;;;;;;;;6155044;23;19932;-95
2023/03/24 06:04:08;;;;;;;;;;;;;;;;;;6154524;23;19952;-95
2023/03/24 06:06:34;;;;;;;;;;;;;;;;;;6153376;23;19927;-95
2023/03/24 06:09:06;;;;;;;;;;;;;;;;;;6152214;23;20464;-95
2023/03/24 06:11:32;;;;;;;;;;;;;;;;;;6157496;23;19916;-95
2023/03/24 06:13:59;;;;;;;;;;;;;;;;;;6154723;23;19920;-95
2023/03/24 06:16:25;;;;;;;;;;;;;;;;;;6179573;23;19924;-95
2023/03/24 06:18:51;;;;;;;;;;;;;;;;;;6153698;23;19927;-95
2023/03/24 06:21:17;;;;;;;;;;;;;;;;;;6153504;23;20003;-95
2023/03/24 06:23:43;;;;;;;;;;;;;;;;;;6156559;23;19924;-95
2023/03/24 06:26:10;;;;;;;;;;;;;;;;;;6153154;23;19986;-95
2023/03/24 06:28:38;;;;;;;;;;;;;;;;;;6157918;23;19920;-96
2023/03/24 06:31:13;;;;;;;;;;;;;;;;;;6159717;23;19943;-96
2023/03/24 06:33:39;;;;;;;;;;;;;;;;;;6155640;23;19920;-96
2023/03/24 06:36:06;;;;;;;;;;;;;;;;;;6158523;23;19924;-95
2023/03/24 06:38:32;;;;;;;;;;;;;;;;;;6159050;23;19955;-96
2023/03/24 06:41:00;;;;;;;;;;;;;;;;;;6155268;23;19928;-96
2023/03/24 06:43:29;;;;;;;;;;;;;;;;;;6155497;23;19927;-96
2023/03/24 06:45:58;;;;;;;;;;;;;;;;;;6152907;23;19999;-96
2023/03/24 06:48:24;;;;;;;;;;;;;;;;;;6163383;23;19920;-96
2023/03/24 06:50:50;;;;;;;;;;;;;;;;;;6136577;23;19936;-96
2023/03/24 06:53:20;;;;;;;;;;;;;;;;;;6157936;23;19920;-96
2023/03/24 06:55:49;;;;;;;;;;;;;;;;;;6159832;23;19943;-96
2023/03/24 06:58:15;;;;;;;;;;;;;;;;;;6133989;23;19920;-96
2023/03/24 07:00:41;;;;;;;;;;;;;;;;;;6155360;23;19928;-96
2023/03/24 07:03:11;;;;;;;;;;;;;;;;;;6158654;23;19966;-96
2023/03/24 07:05:37;;;;;;;;;;;;;;;;;;6163733;23;19917;-96
2023/03/24 07:08:03;;;;;;;;;;;;;;;;;;6164651;23;19920;-96
2023/03/24 07:10:33;;;;;;;;;;;;;;;;;;6168773;23;19920;-96
2023/03/24 07:13:11;;;;;;;;;;;;;;;;;;6191259;23;19916;-96
2023/03/24 07:15:37;;;;;;;;;;;;;;;;;;6172373;23;19951;-96
2023/03/24 07:24:32;;;;;;;;;;;;;;;;;;;;;
2023/03/24 07:29:30;;;;;;;;;;;;;;;;;;6266173;22;19923;-88
2023/03/24 07:31:59;;;;;;;;;;;;;;;;;;6209298;22;19923;-88
2023/03/24 07:34:25;;;;;;;;;;;;;;;;;;6240453;22;19919;-89
2023/03/24 07:36:51;;;;;;;;;;;;;;;;;;6210331;22;20328;-88
2023/03/24 07:39:17;;;;;;;;;;;;;;;;;;6210941;22;19926;-88
2023/03/24 07:41:43;;;;;;;;;;;;;;;;;;6237892;22;19915;-87
2023/03/24 07:44:09;;;;;;;;;;;;;;;;;;6237988;22;19919;-89
2023/03/24 07:46:36;;;;;;;;;;;;;;;;;;6213115;22;20315;-89
2023/03/24 07:49:01;;;;;;;;;;;;;;;;;;6237789;22;19927;-89
2023/03/24 07:51:27;;;;;;;;;;;;;;;;;;6238656;22;20403;-89
2023/03/24 07:53:53;;;;;;;;;;;;;;;;;;6211363;22;19915;-89
2023/03/24 07:56:19;;;;;;;;;;;;;;;;;;6238265;22;19916;-88
2023/03/24 07:58:46;;;;;;;;;;;;;;;;;;6212131;22;19923;-89
2023/03/24 08:01:12;;;;;;;;;;;;;;;;;;6240011;22;19923;-89
2023/03/24 08:03:39;;;;;;;;;;;;;;;;;;6240930;22;19968;-89
2023/03/24 08:06:05;;;;;;;;;;;;;;;;;;6238748;22;20393;-87
2023/03/24 08:08:31;;;;;;;;;;;;;;;;;;6239385;22;20225;-89
2023/03/24 08:10:57;;;;;;;;;;;;;;;;;;6216443;22;19922;-89
2023/03/24 08:13:23;;;;;;;;;;;;;;;;;;6217224;22;19982;-88
2023/03/24 08:15:52;;;;;;;;;;;;;;;;;;6220379;22;19918;-88
2023/03/24 08:18:18;;;;;;;;;;;;;;;;;;6242945;22;19919;-89
2023/03/24 08:20:44;;;;;;;;;;;;;;;;;;6242889;22;19969;-90
2023/03/24 08:23:10;;;;;;;;;;;;;;;;;;6243158;22;19927;-90
2023/03/24 08:25:36;;;;;;;;;;;;;;;;;;6223018;22;19942;-89
2023/03/24 08:28:02;;;;;;;;;;;;;;;;;;6222108;22;20280;-88
2023/03/24 08:30:28;;;;;;;;;;;;;;;;;;6219808;22;19919;-88
2023/03/24 08:32:54;;;;;;;;;;;;;;;;;;6220565;22;19961;-88
2023/03/24 08:35:20;;;;;;;;;;;;;;;;;;6222890;22;19951;-90
2023/03/24 08:37:46;;;;;;;;;;;;;;;;;;6243220;22;20294;-90
2023/03/24 08:40:13;;;;;;;;;;;;;;;;;;6225344;22;20233;-88
2023/03/24 08:42:39;;;;;;;;;;;;;;;;;;6247119;22;19969;-89
2023/03/24 08:45:05;;;;;;;;;;;;;;;;;;6226767;22;19919;-89
2023/03/24 08:47:31;;;;;;;;;;;;;;;;;;6227743;22;20476;-89
2023/03/24 08:49:57;;;;;;;;;;;;;;;;;;6274191;22;20343;-89
2023/03/24 08:52:23;;;;;;;;;;;;;;;;;;6227003;22;19973;-89
2023/03/24 08:54:49;;;;;;;;;;;;;;;;;;6248099;22;20282;-89
2023/03/24 08:57:16;;;;;;;;;;;;;;;;;;6224740;22;19916;-88
2023/03/24 08:59:42;;;;;;;;;;;;;;;;;;6247593;22;19930;-89
2023/03/24 09:02:10;;;;;;;;;;;;;;;;;;6223981;22;19919;-88
2023/03/24 09:04:36;;;;;;;;;;;;;;;;;;6247599;22;19930;-88
2023/03/24 09:07:02;;;;;;;;;;;;;;;;;;6222562;22;19919;-89
2023/03/24 09:09:28;;;;;;;;;;;;;;;;;;6227793;22;19926;-89
2023/03/24 09:11:54;;;;;;;;;;;;;;;;;;6227583;22;19919;-89
2023/03/24 09:14:21;;;;;;;;;;;;;;;;;;6225201;22;19920;-90
2023/03/24 09:16:48;;;;;;;;;;;;;;;;;;6250436;22;19919;-89
2023/03/24 09:19:14;;;;;;;;;;;;;;;;;;6219154;22;20403;-88
2023/03/24 09:21:41;;;;;;;;;;;;;;;;;;6216787;22;19947;-90
2023/03/24 09:24:07;;;;;;;;;;;;;;;;;;6247852;22;19922;-89
2023/03/24 09:26:33;;;;;;;;;;;;;;;;;;6242621;22;19919;-89
2023/03/24 09:28:59;;;;;;;;;;;;;;;;;;6235689;23;20284;-89
2023/03/24 09:31:25;;;;;;;;;;;;;;;;;;6236679;23;19927;-89
2023/03/24 09:33:51;;;;;;;;;;;;;;;;;;6209083;23;20249;-89
2023/03/24 09:36:17;;;;;;;;;;;;;;;;;;6209257;23;19977;-89
2023/03/24 09:38:43;;;;;;;;;;;;;;;;;;6207429;23;19946;-89
2023/03/24 09:41:09;;;;;;;;;;;;;;;;;;6213155;23;20403;-88
2023/03/24 09:43:36;;;;;;;;;;;;;;;;;;6212815;23;19920;-88
2023/03/24 09:46:02;;;;;;;;;;;;;;;;;;6210005;23;19983;-89
2023/03/24 09:48:27;;;;;;;;;;;;;;;;;;6234280;23;19970;-88
2023/03/24 09:50:53;;;;;;;;;;;;;;;;;;6232762;23;19926;-89
2023/03/24 09:53:20;;;;;;;;;;;;;;;;;;6238322;23;19926;-90
2023/03/24 09:55:46;;;;;;;;;;;;;;;;;;6206101;23;19923;-89
2023/03/24 09:58:12;;;;;;;;;;;;;;;;;;6236647;23;19958;-90
2023/03/24 10:00:38;;;;;;;;;;;;;;;;;;6208646;23;19924;-89
2023/03/24 10:03:04;;;;;;;;;;;;;;;;;;6205003;23;19950;-88
2023/03/24 10:05:30;;;;;;;;;;;;;;;;;;6234128;23;19924;-88
2023/03/24 10:07:56;;;;;;;;;;;;;;;;;;6205984;23;19928;-89
2023/03/24 10:10:22;;;;;;;;;;;;;;;;;;6234838;23;19924;-89
2023/03/24 10:12:48;;;;;;;;;;;;;;;;;;6207170;23;20013;-89
2023/03/24 10:15:14;;;;;;;;;;;;;;;;;;6208467;23;19919;-90
2023/03/24 10:17:40;;;;;;;;;;;;;;;;;;6232907;22;19920;-90
2023/03/24 10:20:06;;;;;;;;;;;;;;;;;;6235230;23;19946;-89
2023/03/24 10:22:32;;;;;;;;;;;;;;;;;;6206899;23;19926;-88
2023/03/24 10:24:58;;;;;;;;;;;;;;;;;;6205931;23;19919;-88
2023/03/24 10:27:25;;;;;;;;;;;;;;;;;;6209024;22;19941;-88
2023/03/24 10:29:51;;;;;;;;;;;;;;;;;;6233660;22;19919;-88
2023/03/24 10:32:19;;;;;;;;;;;;;;;;;;6212917;22;19926;-90
2023/03/24 10:34:45;;;;;;;;;;;;;;;;;;6236487;22;19922;-90
2023/03/24 10:37:11;;;;;;;;;;;;;;;;;;6211674;22;19919;-88
2023/03/24 10:39:37;;;;;;;;;;;;;;;;;;6239796;22;20295;-89
2023/03/24 10:42:04;;;;;;;;;;;;;;;;;;6237125;22;19941;-88
2023/03/24 10:44:30;;;;;;;;;;;;;;;;;;6266475;22;20332;-88
2023/03/24 10:46:56;;;;;;;;;;;;;;;;;;6264783;22;19919;-88
2023/03/24 10:49:22;;;;;;;;;;;;;;;;;;6239803;22;20345;-90
2023/03/24 10:51:48;;;;;;;;;;;;;;;;;;6236112;22;20225;-88
2023/03/24 10:54:14;;;;;;;;;;;;;;;;;;6238358;22;19951;-90
2023/03/24 10:56:40;;;;;;;;;;;;;;;;;;6262384;22;19941;-89
2023/03/24 10:59:06;;;;;;;;;;;;;;;;;;6239495;22;19919;-88
2023/03/24 11:01:34;;;;;;;;;;;;;;;;;;6265525;22;19924;-89
2023/03/24 11:04:00;;;;;;;;;;;;;;;;;;6237374;22;20510;-89
2023/03/24 11:06:26;;;;;;;;;;;;;;;;;;6239913;22;19923;-89
2023/03/24 11:08:52;;;;;;;;;;;;;;;;;;6210859;22;19965;-89
2023/03/24 11:11:17;;;;;;;;;;;;;;;;;;6239523;22;19919;-88
2023/03/24 11:13:45;;;;;;;;;;;;;;;;;;6235235;22;20296;-88
2023/03/24 11:16:12;;;;;;;;;;;;;;;;;;6240932;22;20311;-88
2023/03/24 11:18:38;;;;;;;;;;;;;;;;;;6241684;22;19926;-87
2023/03/24 11:21:05;;;;;;;;;;;;;;;;;;6216455;22;20244;-89
2023/03/24 11:23:31;;;;;;;;;;;;;;;;;;6240187;22;20307;-88
2023/03/24 11:25:57;;;;;;;;;;;;;;;;;;6215368;22;19923;-89
2023/03/24 11:28:23;;;;;;;;;;;;;;;;;;6240283;22;19946;-88
2023/03/24 11:30:49;;;;;;;;;;;;;;;;;;6238036;22;19922;-88
2023/03/24 11:33:15;;;;;;;;;;;;;;;;;;6215856;22;19915;-89
2023/03/24 11:35:41;;;;;;;;;;;;;;;;;;6212043;22;19969;-88
2023/03/24 11:38:07;;;;;;;;;;;;;;;;;;6216327;22;20356;-88
2023/03/24 11:40:33;;;;;;;;;;;;;;;;;;6241501;22;19919;-85
2023/03/24 11:42:59;;;;;;;;;;;;;;;;;;6266166;22;19926;-85
2023/03/24 11:45:25;;;;;;;;;;;;;;;;;;6268982;22;20344;-86
2023/03/24 11:47:52;;;;;;;;;;;;;;;;;;6265760;22;19916;-86
2023/03/24 11:50:18;;;;;;;;;;;;;;;;;;6238668;22;19919;-86
2023/03/24 11:52:44;;;;;;;;;;;;;;;;;;6213922;22;19927;-89
2023/03/24 11:55:10;;;;;;;;;;;;;;;;;;6217331;22;19923;-88
2023/03/24 11:57:36;;;;;;;;;;;;;;;;;;6215421;22;19923;-88
2023/03/24 12:00:02;;;;;;;;;;;;;;;;;;6239405;22;20412;-89
2023/03/24 12:02:28;;;;;;;;;;;;;;;;;;6211947;22;19915;-89
2023/03/24 12:04:54;;;;;;;;;;;;;;;;;;6212975;22;19926;-89
2023/03/24 12:07:21;;;;;;;;;;;;;;;;;;6213593;22;19954;-88
2023/03/24 12:09:48;;;;;;;;;;;;;;;;;;6235318;22;20362;-88
2023/03/24 12:12:14;;;;;;;;;;;;;;;;;;6214369;22;20351;-89
2023/03/24 12:14:40;;;;;;;;;;;;;;;;;;6215411;22;19920;-89
2023/03/24 12:17:06;;;;;;;;;;;;;;;;;;6242121;22;20252;-89
2023/03/24 12:19:32;;;;;;;;;;;;;;;;;;6239453;22;19922;-87
2023/03/24 12:21:58;;;;;;;;;;;;;;;;;;6211113;22;20259;-88
2023/03/24 12:24:24;;;;;;;;;;;;;;;;;;6212915;22;19915;-88
2023/03/24 12:26:50;;;;;;;;;;;;;;;;;;6263573;22;19919;-88
2023/03/24 12:29:16;;;;;;;;;;;;;;;;;;6238116;22;19935;-91
2023/03/24 12:31:44;;;;;;;;;;;;;;;;;;6236647;22;19922;-90
2023/03/24 12:34:10;;;;;;;;;;;;;;;;;;6241927;22;19919;-89
2023/03/24 12:36:36;;;;;;;;;;;;;;;;;;6237408;22;19923;-89
2023/03/24 12:39:04;;;;;;;;;;;;;;;;;;6211292;22;20346;-88
2023/03/24 12:41:30;;;;;;;;;;;;;;;;;;6239126;22;20305;-87
2023/03/24 12:43:56;;;;;;;;;;;;;;;;;;6212654;22;19955;-89
2023/03/24 12:46:23;;;;;;;;;;;;;;;;;;6214162;22;20225;-89
2023/03/24 12:48:49;;;;;;;;;;;;;;;;;;6264500;22;19919;-89
2023/03/24 12:51:15;;;;;;;;;;;;;;;;;;6214828;22;19990;-88
2023/03/24 12:53:41;;;;;;;;;;;;;;;;;;6236365;22;19968;-89
2023/03/24 12:56:09;;;;;;;;;;;;;;;;;;6239903;22;19919;-88
2023/03/24 12:58:36;;;;;;;;;;;;;;;;;;6217135;22;19919;-87
2023/03/24 13:01:03;;;;;;;;;;;;;;;;;;6213062;22;19923;-88
2023/03/24 13:03:30;;;;;;;;;;;;;;;;;;6241349;22;19994;-88
2023/03/24 13:05:57;;;;;;;;;;;;;;;;;;6238218;22;19973;-89
2023/03/24 13:08:36;;;;;;;;;;;;;;;;;;6216712;22;19919;-86
2023/03/24 13:11:03;;;;;;;;;;;;;;;;;;6238658;22;19961;-87
2023/03/24 13:13:30;;;;;;;;;;;;;;;;;;6216736;22;19925;-86
2023/03/24 13:15:57;;;;;;;;;;;;;;;;;;6213383;22;19923;-87
2023/03/24 13:18:25;;;;;;;;;;;;;;;;;;6242430;22;20367;-87
2023/03/24 13:20:52;;;;;;;;;;;;;;;;;;6240558;22;19923;-86
2023/03/24 13:23:20;;;;;;;;;;;;;;;;;;6218613;22;19922;-87
2023/03/24 13:25:47;;;;;;;;;;;;;;;;;;6213359;22;19990;-87
2023/03/24 13:28:14;;;;;;;;;;;;;;;;;;6210980;23;19926;-88
2023/03/24 13:30:42;;;;;;;;;;;;;;;;;;6236296;23;20352;-89
2023/03/24 13:33:09;;;;;;;;;;;;;;;;;;6207158;23;20238;-84
2023/03/24 13:35:37;;;;;;;;;;;;;;;;;;6210282;23;19990;-82
2023/03/24 13:38:04;;;;;;;;;;;;;;;;;;6231460;23;20327;-83
2023/03/24 13:40:32;;;;;;;;;;;;;;;;;;6234311;23;19930;-82
2023/03/24 13:42:59;;;;;;;;;;;;;;;;;;6232769;23;19926;-82
2023/03/24 13:45:26;;;;;;;;;;;;;;;;;;6210447;23;19922;-82
2023/03/24 13:47:53;;;;;;;;;;;;;;;;;;6231194;23;19919;-82
2023/03/24 13:50:21;;;;;;;;;;;;;;;;;;6211484;23;19926;-82
2023/03/24 13:52:48;;;;;;;;;;;;;;;;;;6205518;23;20349;-82
2023/03/24 13:55:15;;;;;;;;;;;;;;;;;;6209361;23;19923;-82
2023/03/24 13:57:43;;;;;;;;;;;;;;;;;;6231707;23;19919;-82
2023/03/24 14:00:10;;;;;;;;;;;;;;;;;;6232693;23;19930;-82
2023/03/24 14:02:37;;;;;;;;;;;;;;;;;;6233099;23;19924;-82
2023/03/24 14:05:03;;;;;;;;;;;;;;;;;;6207554;23;19924;-84
2023/03/24 14:07:31;;;;;;;;;;;;;;;;;;6209404;23;19946;-81
2023/03/24 14:09:58;;;;;;;;;;;;;;;;;;6232053;23;19916;-82
2023/03/24 14:12:26;;;;;;;;;;;;;;;;;;6234467;23;19919;-81
2023/03/24 14:14:53;;;;;;;;;;;;;;;;;;6232710;23;20278;-81
2023/03/24 14:17:19;;;;;;;;;;;;;;;;;;6208412;23;19919;-81
2023/03/24 14:19:47;;;;;;;;;;;;;;;;;;6230013;23;19930;-81
2023/03/24 14:22:14;;;;;;;;;;;;;;;;;;6234970;23;19919;-81
2023/03/24 14:24:40;;;;;;;;;;;;;;;;;;6234454;23;19926;-81
2023/03/24 14:27:06;;;;;;;;;;;;;;;;;;6210852;23;19919;-81
2023/03/24 14:29:32;;;;;;;;;;;;;;;;;;6236656;23;19924;-80
2023/03/24 14:31:58;;;;;;;;;;;;;;;;;;6207680;23;20348;-81
2023/03/24 14:34:26;;;;;;;;;;;;;;;;;;6210019;23;20297;-81
2023/03/24 14:36:52;;;;;;;;;;;;;;;;;;6234426;23;19916;-81
2023/03/24 14:39:18;;;;;;;;;;;;;;;;;;6208267;23;19922;-81
2023/03/24 14:41:50;;;;;;;;;;;;;;;;;;6207044;23;19930;-83
2023/03/24 14:44:16;;;;;;;;;;;;;;;;;;6234852;23;19923;-83
2023/03/24 14:46:43;;;;;;;;;;;;;;;;;;6206579;23;19926;-83
2023/03/24 14:49:09;;;;;;;;;;;;;;;;;;6209733;23;19922;-83
2023/03/24 14:51:35;;;;;;;;;;;;;;;;;;6235109;23;19994;-84
2023/03/24 14:54:01;;;;;;;;;;;;;;;;;;6230606;23;20481;-83
2023/03/24 14:56:27;;;;;;;;;;;;;;;;;;6207439;23;20272;-84
2023/03/24 14:58:54;;;;;;;;;;;;;;;;;;6207937;23;19920;-83
2023/03/24 15:01:21;;;;;;;;;;;;;;;;;;6208602;23;19934;-83
2023/03/24 15:03:48;;;;;;;;;;;;;;;;;;6232356;23;19923;-84
2023/03/24 15:06:14;;;;;;;;;;;;;;;;;;6233933;23;19919;-83
2023/03/24 15:08:40;;;;;;;;;;;;;;;;;;6231132;23;19934;-83
2023/03/24 15:11:06;;;;;;;;;;;;;;;;;;6208376;23;19919;-83
2023/03/24 15:13:34;;;;;;;;;;;;;;;;;;6208000;23;20026;-82
2023/03/24 15:16:01;;;;;;;;;;;;;;;;;;6205440;23;19920;-82
2023/03/24 15:18:29;;;;;;;;;;;;;;;;;;6234805;23;20420;-83
2023/03/24 15:20:56;;;;;;;;;;;;;;;;;;6206371;23;19980;-83
2023/03/24 15:23:24;;;;;;;;;;;;;;;;;;6208014;23;20367;-83
2023/03/24 15:25:50;;;;;;;;;;;;;;;;;;6232149;23;19924;-82
2023/03/24 15:28:16;;;;;;;;;;;;;;;;;;6242664;22;19928;-84
2023/03/24 15:30:42;;;;;;;;;;;;;;;;;;6239194;22;19925;-87
2023/03/24 15:33:08;;;;;;;;;;;;;;;;;;6239002;22;19980;-87
2023/03/24 15:35:36;;;;;;;;;;;;;;;;;;6240659;22;19915;-88
2023/03/24 15:38:03;;;;;;;;;;;;;;;;;;6235667;22;19923;-87
2023/03/24 15:40:31;;;;;;;;;;;;;;;;;;6214879;22;19958;-87
2023/03/24 15:42:58;;;;;;;;;;;;;;;;;;6211741;22;20327;-87
2023/03/24 15:45:24;;;;;;;;;;;;;;;;;;6212885;22;20411;-87
2023/03/24 15:47:50;;;;;;;;;;;;;;;;;;6209139;22;19919;-87
2023/03/24 15:50:16;;;;;;;;;;;;;;;;;;6213875;22;20049;-87
2023/03/24 15:52:42;;;;;;;;;;;;;;;;;;6236951;22;19951;-87
2023/03/24 15:55:08;;;;;;;;;;;;;;;;;;6239864;22;19923;-87
2023/03/24 15:57:34;;;;;;;;;;;;;;;;;;6238618;22;19919;-87
2023/03/24 16:00:00;;;;;;;;;;;;;;;;;;6237807;22;20506;-87
2023/03/24 16:02:26;;;;;;;;;;;;;;;;;;6214264;22;19931;-88
2023/03/24 16:04:53;;;;;;;;;;;;;;;;;;6210509;22;19919;-87
2023/03/24 16:07:22;;;;;;;;;;;;;;;;;;6239402;22;19991;-87
2023/03/24 16:09:49;;;;;;;;;;;;;;;;;;6236666;22;19915;-87
2023/03/24 16:12:17;;;;;;;;;;;;;;;;;;6266346;22;20310;-87
2023/03/24 16:14:43;;;;;;;;;;;;;;;;;;6212601;22;20381;-87
2023/03/24 16:17:09;;;;;;;;;;;;;;;;;;6212907;22;19947;-87
2023/03/24 16:19:36;;;;;;;;;;;;;;;;;;6237063;22;19919;-88
2023/03/24 16:22:02;;;;;;;;;;;;;;;;;;6235939;22;19919;-88
2023/03/24 16:24:28;;;;;;;;;;;;;;;;;;6236089;22;19969;-86
2023/03/24 16:26:54;;;;;;;;;;;;;;;;;;6212800;22;20343;-86
2023/03/24 16:29:20;;;;;;;;;;;;;;;;;;6215491;22;19926;-86
2023/03/24 16:31:49;;;;;;;;;;;;;;;;;;6239564;22;19930;-87
2023/03/24 16:34:17;;;;;;;;;;;;;;;;;;6217916;22;19941;-87
2023/03/24 16:36:43;;;;;;;;;;;;;;;;;;6214753;22;20452;-87
2023/03/24 16:39:09;;;;;;;;;;;;;;;;;;6242965;22;19993;-87
2023/03/24 16:41:35;;;;;;;;;;;;;;;;;;6241264;22;20481;-88
2023/03/24 16:44:01;;;;;;;;;;;;;;;;;;6240941;22;19972;-87
2023/03/24 16:46:27;;;;;;;;;;;;;;;;;;6240947;22;20360;-87
2023/03/24 16:48:53;;;;;;;;;;;;;;;;;;6241610;22;19919;-87